Time,TemperatureF,DewpointF,PressureIn,WindDirection,WindDirectionDegrees,WindSpeedMPH,WindSpeedGustMPH,Humidity,HourlyPrecipIn,Conditions,Clouds,dailyrainin,SoftwareType,DateUTC
2013-05-12 00:11:00,67.3,52.0,29.91,NNE,17,0.0,0.0,59,0.00,,,0.00,weatherlink.com 1.10,2013-05-12 07:11:00,
2013-05-12 00:26:00,67.5,52.0,29.91,NNE,17,0.0,0.0,59,0.00,,,0.00,weatherlink.com 1.10,2013-05-12 07:26:00,
2013-05-12 00:42:00,66.2,53.0,29.92,NNE,17,0.0,0.0,63,0.00,,,0.00,weatherlink.com 1.10,2013-05-12 07:42:00,
2013-05-12 00:57:00,64.0,53.0,29.92,NNE,17,0.0,0.0,68,0.00,,,0.00,weatherlink.com 1.10,2013-05-12 07:57:00,
2013-05-12 01:12:00,62.7,53.0,29.92,NNE,17,0.0,0.0,70,0.00,,,0.00,weatherlink.com 1.10,2013-05-12 08:12:00,
2013-05-12 01:26:00,62.7,53.0,29.92,NNE,17,0.0,0.0,70,0.00,,,0.00,weatherlink.com 1.10,2013-05-12 08:26:00,
2013-05-12 01:42:00,62.1,52.0,29.92,NNE,17,0.0,0.0,70,0.00,,,0.00,weatherlink.com 1.10,2013-05-12 08:42:00,
2013-05-12 01:57:00,60.1,52.0,29.92,NNE,24,0.0,3.0,75,0.00,,,0.00,weatherlink.com 1.10,2013-05-12 08:57:00,
2013-05-12 02:12:00,60.1,53.0,29.92,NNE,29,0.0,0.0,76,0.00,,,0.00,weatherlink.com 1.10,2013-05-12 09:12:00,
2013-05-12 02:28:00,59.9,52.0,29.91,NNE,29,0.0,0.0,76,0.00,,,0.00,weatherlink.com 1.10,2013-05-12 09:28:00,
2013-05-12 02:42:00,60.5,53.0,29.91,NNE,29,0.0,0.0,75,0.00,,,0.00,weatherlink.com 1.10,2013-05-12 09:42:00,
2013-05-12 02:57:00,60.0,52.0,29.91,NNE,29,0.0,0.0,75,0.00,,,0.00,weatherlink.com 1.10,2013-05-12 09:57:00,
2013-05-12 03:12:00,60.4,51.0,29.91,NE,53,4.0,4.0,72,0.00,,,0.00,weatherlink.com 1.10,2013-05-12 10:12:00,
2013-05-12 03:30:00,60.5,51.0,29.91,East,88,2.0,5.0,72,0.00,,,0.00,weatherlink.com 1.10,2013-05-12 10:30:00,
2013-05-12 03:45:00,59.1,51.0,29.91,East,88,0.0,5.0,74,0.00,,,0.00,weatherlink.com 1.10,2013-05-12 10:45:00,
2013-05-12 03:58:00,59.0,51.0,29.91,East,88,0.0,0.0,75,0.00,,,0.00,weatherlink.com 1.10,2013-05-12 10:58:00,
2013-05-12 04:15:00,58.3,51.0,29.91,East,88,0.0,3.0,76,0.00,,,0.00,weatherlink.com 1.10,2013-05-12 11:15:00,
2013-05-12 04:30:00,58.6,50.0,29.91,East,88,0.0,0.0,74,0.00,,,0.00,weatherlink.com 1.10,2013-05-12 11:30:00,
2013-05-12 04:45:00,58.0,50.0,29.91,East,94,0.0,5.0,76,0.00,,,0.00,weatherlink.com 1.10,2013-05-12 11:45:00,
2013-05-12 05:00:00,59.0,51.0,29.91,East,98,0.0,0.0,74,0.00,,,0.00,weatherlink.com 1.10,2013-05-12 12:00:00,
2013-05-12 05:15:00,57.7,51.0,29.91,East,98,0.0,0.0,77,0.00,,,0.00,weatherlink.com 1.10,2013-05-12 12:15:00,
2013-05-12 05:29:00,57.2,51.0,29.91,East,98,0.0,0.0,79,0.00,,,0.00,weatherlink.com 1.10,2013-05-12 12:29:00,
2013-05-12 05:45:00,56.7,50.0,29.91,East,98,0.0,0.0,79,0.00,,,0.00,weatherlink.com 1.10,2013-05-12 12:45:00,
2013-05-12 06:00:00,56.4,50.0,29.91,East,98,0.0,0.0,80,0.00,,,0.00,weatherlink.com 1.10,2013-05-12 13:00:00,
2013-05-12 06:15:00,56.1,51.0,29.91,East,98,0.0,0.0,82,0.00,,,0.00,weatherlink.com 1.10,2013-05-12 13:15:00,
2013-05-12 06:30:00,57.8,51.0,29.91,East,98,0.0,0.0,79,0.00,,,0.00,weatherlink.com 1.10,2013-05-12 13:30:00,
2013-05-12 06:45:00,59.0,52.0,29.92,East,98,0.0,0.0,77,0.00,,,0.00,weatherlink.com 1.10,2013-05-12 13:45:00,
2013-05-12 07:00:00,59.0,52.0,29.92,East,98,0.0,0.0,78,0.00,,,0.00,weatherlink.com 1.10,2013-05-12 14:00:00,
2013-05-12 07:15:00,60.3,53.0,29.93,East,98,0.0,0.0,76,0.00,,,0.00,weatherlink.com 1.10,2013-05-12 14:15:00,
2013-05-12 07:30:00,63.2,54.0,29.93,East,98,0.0,1.0,71,0.00,,,0.00,weatherlink.com 1.10,2013-05-12 14:30:00,
2013-05-12 07:45:00,64.4,54.0,29.93,East,96,0.0,0.0,69,0.00,,,0.00,weatherlink.com 1.10,2013-05-12 14:45:00,
2013-05-12 08:00:00,64.9,53.0,29.93,East,96,0.0,0.0,66,0.00,,,0.00,weatherlink.com 1.10,2013-05-12 15:00:00,
2013-05-12 08:15:00,65.4,53.0,29.93,East,95,0.0,3.0,65,0.00,,,0.00,weatherlink.com 1.10,2013-05-12 15:15:00,
2013-05-12 08:30:00,66.0,54.0,29.93,East,95,0.0,1.0,66,0.00,,,0.00,weatherlink.com 1.10,2013-05-12 15:30:00,
2013-05-12 08:46:00,67.8,55.0,29.93,East,95,0.0,0.0,63,0.00,,,0.00,weatherlink.com 1.10,2013-05-12 15:46:00,
2013-05-12 09:01:00,68.8,54.0,29.93,East,95,0.0,0.0,59,0.00,,,0.00,weatherlink.com 1.10,2013-05-12 16:01:00,
2013-05-12 09:16:00,70.3,56.0,29.93,East,95,0.0,0.0,61,0.00,,,0.00,weatherlink.com 1.10,2013-05-12 16:16:00,
2013-05-12 09:31:00,71.5,57.0,29.93,East,95,0.0,0.0,61,0.00,,,0.00,weatherlink.com 1.10,2013-05-12 16:31:00,
2013-05-12 09:46:00,72.9,58.0,29.92,East,95,0.0,0.0,60,0.00,,,0.00,weatherlink.com 1.10,2013-05-12 16:46:00,
2013-05-12 10:01:00,73.9,56.0,29.91,ESE,111,3.0,7.0,53,0.00,,,0.00,weatherlink.com 1.10,2013-05-12 17:01:00,
2013-05-12 10:17:00,73.3,52.0,29.91,SW,223,7.0,12.0,47,0.00,,,0.00,weatherlink.com 1.10,2013-05-12 17:17:00,
2013-05-12 10:32:00,74.0,52.0,29.91,SSW,200,4.0,8.0,47,0.00,,,0.00,weatherlink.com 1.10,2013-05-12 17:32:00,
2013-05-12 10:47:00,74.4,52.0,29.91,SW,215,4.0,9.0,46,0.00,,,0.00,weatherlink.com 1.10,2013-05-12 17:47:00,
2013-05-12 11:02:00,75.3,51.0,29.91,SSW,209,2.0,7.0,43,0.00,,,0.00,weatherlink.com 1.10,2013-05-12 18:02:00,
2013-05-12 11:17:00,76.7,50.0,29.91,SSW,210,3.0,7.0,39,0.00,,,0.00,weatherlink.com 1.10,2013-05-12 18:17:00,
2013-05-12 11:32:00,77.7,44.0,29.91,West,272,6.0,12.0,30,0.00,,,0.00,weatherlink.com 1.10,2013-05-12 18:32:00,
2013-05-12 11:50:00,78.6,47.0,29.91,SW,226,5.0,13.0,33,0.00,,,0.00,weatherlink.com 1.10,2013-05-12 18:50:00,
2013-05-12 12:05:00,78.3,48.0,29.91,SSW,200,4.0,10.0,35,0.00,,,0.00,weatherlink.com 1.10,2013-05-12 19:05:00,
2013-05-12 12:20:00,79.5,50.0,29.90,West,275,8.0,13.0,35,0.00,,,0.00,weatherlink.com 1.10,2013-05-12 19:20:00,
2013-05-12 12:35:00,80.3,49.0,29.90,WSW,250,4.0,13.0,33,0.00,,,0.00,weatherlink.com 1.10,2013-05-12 19:35:00,
2013-05-12 12:50:00,80.1,49.0,29.89,SSW,196,4.0,15.0,34,0.00,,,0.00,weatherlink.com 1.10,2013-05-12 19:50:00,
2013-05-12 13:05:00,79.4,49.0,29.89,West,271,11.0,19.0,35,0.00,,,0.00,weatherlink.com 1.10,2013-05-12 20:05:00,
2013-05-12 13:20:00,80.7,49.0,29.89,West,272,8.0,22.0,33,0.00,,,0.00,weatherlink.com 1.10,2013-05-12 20:20:00,
2013-05-12 13:35:00,81.3,50.0,29.89,West,277,16.0,22.0,33,0.00,,,0.00,weatherlink.com 1.10,2013-05-12 20:35:00,
2013-05-12 13:50:00,81.9,50.0,29.88,West,264,15.0,20.0,33,0.00,,,0.00,weatherlink.com 1.10,2013-05-12 20:50:00,
2013-05-12 14:05:00,82.5,51.0,29.88,WNW,295,16.0,20.0,33,0.00,,,0.00,weatherlink.com 1.10,2013-05-12 21:05:00,
2013-05-12 14:20:00,82.0,50.0,29.88,WNW,294,7.0,22.0,33,0.00,,,0.00,weatherlink.com 1.10,2013-05-12 21:20:00,
2013-05-12 14:35:00,82.0,51.0,29.88,West,265,7.0,16.0,34,0.00,,,0.00,weatherlink.com 1.10,2013-05-12 21:35:00,
2013-05-12 14:50:00,81.9,51.0,29.87,WNW,298,8.0,16.0,34,0.00,,,0.00,weatherlink.com 1.10,2013-05-12 21:50:00,
2013-05-12 15:05:00,80.8,50.0,29.87,WNW,295,7.0,19.0,34,0.00,,,0.00,weatherlink.com 1.10,2013-05-12 22:05:00,
2013-05-12 15:20:00,80.0,50.0,29.87,West,260,11.0,18.0,35,0.00,,,0.00,weatherlink.com 1.10,2013-05-12 22:20:00,
2013-05-12 15:35:00,80.0,49.0,29.86,West,268,9.0,15.0,34,0.00,,,0.00,weatherlink.com 1.10,2013-05-12 22:35:00,
2013-05-12 15:51:00,79.4,49.0,29.86,WNW,296,6.0,19.0,35,0.00,,,0.00,weatherlink.com 1.10,2013-05-12 22:51:00,
2013-05-12 16:06:00,79.4,49.0,29.86,SW,226,10.0,16.0,34,0.00,,,0.00,weatherlink.com 1.10,2013-05-12 23:06:00,
2013-05-12 16:21:00,79.3,49.0,29.86,WSW,246,7.0,17.0,34,0.00,,,0.00,weatherlink.com 1.10,2013-05-12 23:21:00,
2013-05-12 16:36:00,79.2,48.0,29.86,WSW,237,15.0,19.0,34,0.00,,,0.00,weatherlink.com 1.10,2013-05-12 23:36:00,
2013-05-12 16:51:00,77.9,47.0,29.86,WSW,250,6.0,16.0,34,0.00,,,0.00,weatherlink.com 1.10,2013-05-12 23:51:00,
2013-05-12 17:06:00,78.2,48.0,29.86,NW,308,13.0,18.0,34,0.00,,,0.00,weatherlink.com 1.10,2013-05-13 00:06:00,
2013-05-12 17:21:00,77.7,47.0,29.86,WSW,257,10.0,14.0,34,0.00,,,0.00,weatherlink.com 1.10,2013-05-13 00:21:00,
2013-05-12 17:36:00,75.8,48.0,29.86,NW,317,10.0,14.0,38,0.00,,,0.00,weatherlink.com 1.10,2013-05-13 00:36:00,
2013-05-12 17:52:00,75.7,47.0,29.86,West,271,3.0,17.0,36,0.00,,,0.00,weatherlink.com 1.10,2013-05-13 00:52:00,
2013-05-12 18:07:00,75.3,46.0,29.85,WNW,288,6.0,17.0,35,0.00,,,0.00,weatherlink.com 1.10,2013-05-13 01:07:00,
2013-05-12 18:22:00,74.7,46.0,29.85,NW,313,5.0,16.0,36,0.00,,,0.00,weatherlink.com 1.10,2013-05-13 01:22:00,
2013-05-12 18:37:00,74.7,46.0,29.85,NW,304,4.0,13.0,36,0.00,,,0.00,weatherlink.com 1.10,2013-05-13 01:37:00,
2013-05-12 18:52:00,74.7,46.0,29.85,NW,311,5.0,15.0,36,0.00,,,0.00,weatherlink.com 1.10,2013-05-13 01:52:00,
2013-05-12 19:07:00,75.2,48.0,29.85,West,273,7.0,17.0,38,0.00,,,0.00,weatherlink.com 1.10,2013-05-13 02:07:00,
2013-05-12 19:23:00,74.9,48.0,29.84,WSW,254,9.0,15.0,38,0.00,,,0.00,weatherlink.com 1.10,2013-05-13 02:23:00,
2013-05-12 19:38:00,74.0,48.0,29.85,WNW,284,7.0,13.0,40,0.00,,,0.00,weatherlink.com 1.10,2013-05-13 02:38:00,
2013-05-12 19:53:00,72.6,47.0,29.86,WSW,253,5.0,14.0,41,0.00,,,0.00,weatherlink.com 1.10,2013-05-13 02:53:00,
2013-05-12 20:08:00,72.2,47.0,29.86,WNW,292,5.0,12.0,41,0.00,,,0.00,weatherlink.com 1.10,2013-05-13 03:08:00,
2013-05-12 20:23:00,70.8,48.0,29.86,WSW,252,4.0,6.0,44,0.00,,,0.00,weatherlink.com 1.10,2013-05-13 03:23:00,
2013-05-12 20:38:00,68.7,48.0,29.87,WSW,241,4.0,9.0,48,0.00,,,0.00,weatherlink.com 1.10,2013-05-13 03:38:00,
2013-05-12 20:53:00,67.8,48.0,29.87,WSW,242,0.0,6.0,50,0.00,,,0.00,weatherlink.com 1.10,2013-05-13 03:53:00,
2013-05-12 21:08:00,68.0,46.0,29.88,WSW,254,6.0,9.0,46,0.00,,,0.00,weatherlink.com 1.10,2013-05-13 04:08:00,
2013-05-12 21:24:00,67.7,47.0,29.89,West,259,0.0,5.0,48,0.00,,,0.00,weatherlink.com 1.10,2013-05-13 04:24:00,
2013-05-12 21:39:00,66.7,47.0,29.89,WSW,256,0.0,5.0,49,0.00,,,0.00,weatherlink.com 1.10,2013-05-13 04:39:00,
2013-05-12 21:54:00,66.0,47.0,29.90,WSW,256,0.0,0.0,50,0.00,,,0.00,weatherlink.com 1.10,2013-05-13 04:54:00,
2013-05-12 22:09:00,65.5,46.0,29.90,WSW,256,0.0,0.0,50,0.00,,,0.00,weatherlink.com 1.10,2013-05-13 05:09:00,
2013-05-12 22:24:00,64.7,48.0,29.90,WNW,289,0.0,0.0,55,0.00,,,0.00,weatherlink.com 1.10,2013-05-13 05:24:00,
2013-05-12 22:39:00,62.0,48.0,29.91,WNW,293,0.0,3.0,61,0.00,,,0.00,weatherlink.com 1.10,2013-05-13 05:39:00,
2013-05-12 22:54:00,60.6,48.0,29.91,WNW,294,0.0,0.0,64,0.00,,,0.00,weatherlink.com 1.10,2013-05-13 05:54:00,
2013-05-12 23:09:00,59.1,48.0,29.91,WNW,294,0.0,0.0,68,0.00,,,0.00,weatherlink.com 1.10,2013-05-13 06:09:00,
2013-05-12 23:24:00,58.1,48.0,29.91,WNW,294,0.0,0.0,70,0.00,,,0.00,weatherlink.com 1.10,2013-05-13 06:24:00,
2013-05-12 23:39:00,58.0,49.0,29.91,WNW,294,0.0,0.0,71,0.00,,,0.00,weatherlink.com 1.10,2013-05-13 06:39:00,
2013-05-12 23:54:00,56.9,48.0,29.91,ESE,122,0.0,4.0,73,0.00,,,0.00,weatherlink.com 1.10,2013-05-13 06:54:00,